sensor_id;sensor_type;location;lat;lon;timestamp;temperature;humidity
41762;DHT22;27441;50.860;0.258;2022-11-04T00:00:52;8.80;99.90
41762;DHT22;27441;50.860;0.258;2022-11-04T00:03:18;8.80;99.90
41762;DHT22;27441;50.860;0.258;2022-11-04T00:05:44;8.80;99.90
41762;DHT22;27441;50.860;0.258;2022-11-04T00:08:09;8.80;99.90
41762;DHT22;27441;50.860;0.258;2022-11-04T00:10:57;8.70;99.90
41762;DHT22;27441;50.860;0.258;2022-11-04T00:13:42;8.70;99.90
41762;DHT22;27441;50.860;0.258;2022-11-04T00:16:08;8.70;99.90
41762;DHT22;27441;50.860;0.258;2022-11-04T00:18:53;8.70;99.90
41762;DHT22;27441;50.860;0.258;2022-11-04T00:21:19;8.70;99.90
41762;DHT22;27441;50.860;0.258;2022-11-04T00:24:04;8.70;99.90
41762;DHT22;27441;50.860;0.258;2022-11-04T00:26:48;8.70;99.90
41762;DHT22;27441;50.860;0.258;2022-11-04T00:29:33;8.70;99.90
41762;DHT22;27441;50.860;0.258;2022-11-04T00:31:58;8.80;99.90
41762;DHT22;27441;50.860;0.258;2022-11-04T00:34:43;8.80;99.90
41762;DHT22;27441;50.860;0.258;2022-11-04T00:37:09;8.80;99.90
41762;DHT22;27441;50.860;0.258;2022-11-04T00:39:34;8.80;99.90
41762;DHT22;27441;50.860;0.258;2022-11-04T00:42:00;8.80;99.90
41762;DHT22;27441;50.860;0.258;2022-11-04T00:44:26;8.80;99.90
41762;DHT22;27441;50.860;0.258;2022-11-04T00:46:51;8.80;99.90
41762;DHT22;27441;50.860;0.258;2022-11-04T00:49:17;8.90;99.90
41762;DHT22;27441;50.860;0.258;2022-11-04T00:51:42;8.90;99.90
41762;DHT22;27441;50.860;0.258;2022-11-04T00:54:08;8.90;99.90
41762;DHT22;27441;50.860;0.258;2022-11-04T00:56:37;8.90;99.90
41762;DHT22;27441;50.860;0.258;2022-11-04T00:59:03;8.90;99.90
41762;DHT22;27441;50.860;0.258;2022-11-04T01:01:29;8.90;99.90
41762;DHT22;27441;50.860;0.258;2022-11-04T01:03:55;9.00;99.90
41762;DHT22;27441;50.860;0.258;2022-11-04T01:06:22;9.00;99.90
41762;DHT22;27441;50.860;0.258;2022-11-04T01:08:54;9.00;99.90
41762;DHT22;27441;50.860;0.258;2022-11-04T01:11:20;9.10;99.90
41762;DHT22;27441;50.860;0.258;2022-11-04T01:13:49;9.10;99.90
41762;DHT22;27441;50.860;0.258;2022-11-04T01:16:15;9.10;99.90
41762;DHT22;27441;50.860;0.258;2022-11-04T01:18:41;9.10;99.90
41762;DHT22;27441;50.860;0.258;2022-11-04T01:21:09;9.10;99.90
41762;DHT22;27441;50.860;0.258;2022-11-04T01:23:35;9.10;99.90
41762;DHT22;27441;50.860;0.258;2022-11-04T01:26:07;9.10;99.90
41762;DHT22;27441;50.860;0.258;2022-11-04T01:28:33;9.20;99.90
41762;DHT22;27441;50.860;0.258;2022-11-04T01:31:04;9.20;99.90
41762;DHT22;27441;50.860;0.258;2022-11-04T01:33:30;9.20;99.90
41762;DHT22;27441;50.860;0.258;2022-11-04T01:35:58;9.30;99.90
41762;DHT22;27441;50.860;0.258;2022-11-04T01:38:25;9.30;99.90
41762;DHT22;27441;50.860;0.258;2022-11-04T01:40:50;9.30;99.90
41762;DHT22;27441;50.860;0.258;2022-11-04T01:43:18;9.20;99.90
41762;DHT22;27441;50.860;0.258;2022-11-04T01:45:53;9.20;99.90
41762;DHT22;27441;50.860;0.258;2022-11-04T01:48:30;9.20;99.90
41762;DHT22;27441;50.860;0.258;2022-11-04T01:50:58;9.20;99.90
41762;DHT22;27441;50.860;0.258;2022-11-04T01:53:32;9.30;99.90
41762;DHT22;27441;50.860;0.258;2022-11-04T01:56:01;9.30;99.90
41762;DHT22;27441;50.860;0.258;2022-11-04T01:58:31;9.40;99.90
41762;DHT22;27441;50.860;0.258;2022-11-04T02:00:58;9.40;99.90
41762;DHT22;27441;50.860;0.258;2022-11-04T02:03:34;9.40;99.90
41762;DHT22;27441;50.860;0.258;2022-11-04T02:06:01;9.40;99.90
41762;DHT22;27441;50.860;0.258;2022-11-04T02:08:28;9.40;99.90
41762;DHT22;27441;50.860;0.258;2022-11-04T02:10:57;9.40;99.90
41762;DHT22;27441;50.860;0.258;2022-11-04T02:13:23;9.30;99.90
41762;DHT22;27441;50.860;0.258;2022-11-04T02:16:13;9.30;99.90
41762;DHT22;27441;50.860;0.258;2022-11-04T02:19:37;9.30;99.90
41762;DHT22;27441;50.860;0.258;2022-11-04T02:30:24;9.20;99.90
41762;DHT22;27441;50.860;0.258;2022-11-04T02:33:18;9.10;99.90
41762;DHT22;27441;50.860;0.258;2022-11-04T02:36:11;9.10;99.90
41762;DHT22;27441;50.860;0.258;2022-11-04T02:38:54;9.10;99.90
41762;DHT22;27441;50.860;0.258;2022-11-04T02:46:53;9.00;99.90
41762;DHT22;27441;50.860;0.258;2022-11-04T02:49:44;9.00;99.90
41762;DHT22;27441;50.860;0.258;2022-11-04T02:52:42;9.00;99.90
41762;DHT22;27441;50.860;0.258;2022-11-04T02:55:17;9.00;99.90
41762;DHT22;27441;50.860;0.258;2022-11-04T02:57:45;9.00;99.90
41762;DHT22;27441;50.860;0.258;2022-11-04T03:00:13;9.00;99.90
41762;DHT22;27441;50.860;0.258;2022-11-04T03:02:45;9.00;99.90
41762;DHT22;27441;50.860;0.258;2022-11-04T03:05:16;9.00;99.90
41762;DHT22;27441;50.860;0.258;2022-11-04T03:07:44;8.90;99.90
41762;DHT22;27441;50.860;0.258;2022-11-04T03:10:29;8.90;99.90
41762;DHT22;27441;50.860;0.258;2022-11-04T03:13:11;9.00;99.90
41762;DHT22;27441;50.860;0.258;2022-11-04T03:15:39;9.00;99.90
41762;DHT22;27441;50.860;0.258;2022-11-04T03:18:18;9.00;99.90
41762;DHT22;27441;50.860;0.258;2022-11-04T03:20:47;9.00;99.90
41762;DHT22;27441;50.860;0.258;2022-11-04T03:23:14;8.90;99.90
41762;DHT22;27441;50.860;0.258;2022-11-04T03:25:44;8.90;99.90
41762;DHT22;27441;50.860;0.258;2022-11-04T03:31:12;8.90;99.90
41762;DHT22;27441;50.860;0.258;2022-11-04T03:33:51;8.90;99.90
41762;DHT22;27441;50.860;0.258;2022-11-04T03:36:18;8.90;99.90
41762;DHT22;27441;50.860;0.258;2022-11-04T03:38:45;8.90;99.90
41762;DHT22;27441;50.860;0.258;2022-11-04T03:41:22;8.80;99.90
41762;DHT22;27441;50.860;0.258;2022-11-04T03:43:49;8.80;99.90
41762;DHT22;27441;50.860;0.258;2022-11-04T03:46:14;8.90;99.90
41762;DHT22;27441;50.860;0.258;2022-11-04T03:48:41;8.80;99.90
41762;DHT22;27441;50.860;0.258;2022-11-04T03:51:09;8.80;99.90
41762;DHT22;27441;50.860;0.258;2022-11-04T03:53:35;8.80;99.90
41762;DHT22;27441;50.860;0.258;2022-11-04T03:58:57;8.90;99.90
41762;DHT22;27441;50.860;0.258;2022-11-04T04:04:30;8.90;99.90
41762;DHT22;27441;50.860;0.258;2022-11-04T04:07:19;8.90;99.90
41762;DHT22;27441;50.860;0.258;2022-11-04T04:09:52;8.90;99.90
41762;DHT22;27441;50.860;0.258;2022-11-04T04:12:26;9.00;99.90
41762;DHT22;27441;50.860;0.258;2022-11-04T04:15:02;8.90;99.90
41762;DHT22;27441;50.860;0.258;2022-11-04T04:17:36;8.90;99.90
41762;DHT22;27441;50.860;0.258;2022-11-04T04:20:07;8.90;99.90
41762;DHT22;27441;50.860;0.258;2022-11-04T04:22:41;8.90;99.90
41762;DHT22;27441;50.860;0.258;2022-11-04T04:25:09;8.90;99.90
41762;DHT22;27441;50.860;0.258;2022-11-04T04:27:56;8.90;99.90
41762;DHT22;27441;50.860;0.258;2022-11-04T04:30:22;8.80;99.90
41762;DHT22;27441;50.860;0.258;2022-11-04T04:33:02;8.80;99.90
41762;DHT22;27441;50.860;0.258;2022-11-04T04:35:32;8.80;99.90
41762;DHT22;27441;50.860;0.258;2022-11-04T04:38:21;8.80;99.90
41762;DHT22;27441;50.860;0.258;2022-11-04T04:41:19;8.80;99.90
41762;DHT22;27441;50.860;0.258;2022-11-04T04:44:15;8.80;99.90
41762;DHT22;27441;50.860;0.258;2022-11-04T04:47:01;8.80;99.90
41762;DHT22;27441;50.860;0.258;2022-11-04T04:49:28;8.80;99.90
41762;DHT22;27441;50.860;0.258;2022-11-04T04:52:00;8.90;99.90
41762;DHT22;27441;50.860;0.258;2022-11-04T04:54:26;8.90;99.90
41762;DHT22;27441;50.860;0.258;2022-11-04T04:56:52;8.80;99.90
41762;DHT22;27441;50.860;0.258;2022-11-04T04:59:18;8.90;99.90
41762;DHT22;27441;50.860;0.258;2022-11-04T05:01:43;8.80;99.90
41762;DHT22;27441;50.860;0.258;2022-11-04T05:04:09;8.80;99.90
41762;DHT22;27441;50.860;0.258;2022-11-04T05:06:35;8.90;99.90
41762;DHT22;27441;50.860;0.258;2022-11-04T05:09:00;8.80;99.90
41762;DHT22;27441;50.860;0.258;2022-11-04T05:11:26;8.90;99.90
41762;DHT22;27441;50.860;0.258;2022-11-04T05:13:52;8.90;99.90
41762;DHT22;27441;50.860;0.258;2022-11-04T05:16:17;8.80;99.90
41762;DHT22;27441;50.860;0.258;2022-11-04T05:18:43;8.80;99.90
41762;DHT22;27441;50.860;0.258;2022-11-04T05:21:11;8.80;99.90
41762;DHT22;27441;50.860;0.258;2022-11-04T05:23:37;8.80;99.90
41762;DHT22;27441;50.860;0.258;2022-11-04T05:26:03;8.80;99.90
41762;DHT22;27441;50.860;0.258;2022-11-04T05:28:29;8.80;99.90
41762;DHT22;27441;50.860;0.258;2022-11-04T05:30:55;8.80;99.90
41762;DHT22;27441;50.860;0.258;2022-11-04T05:33:21;8.70;99.90
41762;DHT22;27441;50.860;0.258;2022-11-04T05:35:46;8.70;99.90
41762;DHT22;27441;50.860;0.258;2022-11-04T05:38:12;8.70;99.90
41762;DHT22;27441;50.860;0.258;2022-11-04T05:40:38;8.70;99.90
41762;DHT22;27441;50.860;0.258;2022-11-04T05:43:04;8.70;99.90
41762;DHT22;27441;50.860;0.258;2022-11-04T05:45:30;8.70;99.90
41762;DHT22;27441;50.860;0.258;2022-11-04T05:47:57;8.70;99.90
41762;DHT22;27441;50.860;0.258;2022-11-04T05:50:23;8.70;99.90
41762;DHT22;27441;50.860;0.258;2022-11-04T05:52:48;8.70;99.90
41762;DHT22;27441;50.860;0.258;2022-11-04T05:55:14;8.70;99.90
41762;DHT22;27441;50.860;0.258;2022-11-04T05:57:40;8.70;99.90
41762;DHT22;27441;50.860;0.258;2022-11-04T06:00:06;8.60;99.90
41762;DHT22;27441;50.860;0.258;2022-11-04T06:02:32;8.60;99.90
41762;DHT22;27441;50.860;0.258;2022-11-04T06:04:57;8.60;99.90
41762;DHT22;27441;50.860;0.258;2022-11-04T06:07:23;8.60;99.90
41762;DHT22;27441;50.860;0.258;2022-11-04T06:09:49;8.60;99.90
41762;DHT22;27441;50.860;0.258;2022-11-04T06:12:15;8.60;99.90
41762;DHT22;27441;50.860;0.258;2022-11-04T06:14:42;8.60;99.90
41762;DHT22;27441;50.860;0.258;2022-11-04T06:17:15;8.60;99.90
41762;DHT22;27441;50.860;0.258;2022-11-04T06:19:41;8.60;99.90
41762;DHT22;27441;50.860;0.258;2022-11-04T06:22:12;8.60;99.90
41762;DHT22;27441;50.860;0.258;2022-11-04T06:24:38;8.60;99.90
41762;DHT22;27441;50.860;0.258;2022-11-04T06:27:04;8.60;99.90
41762;DHT22;27441;50.860;0.258;2022-11-04T06:29:30;8.60;99.90
41762;DHT22;27441;50.860;0.258;2022-11-04T06:31:56;8.60;99.90
41762;DHT22;27441;50.860;0.258;2022-11-04T06:34:22;8.60;99.90
41762;DHT22;27441;50.860;0.258;2022-11-04T06:36:48;8.60;99.90
41762;DHT22;27441;50.860;0.258;2022-11-04T06:39:14;8.60;99.90
41762;DHT22;27441;50.860;0.258;2022-11-04T06:41:40;8.50;99.90
41762;DHT22;27441;50.860;0.258;2022-11-04T06:44:05;8.50;99.90
41762;DHT22;27441;50.860;0.258;2022-11-04T06:46:36;8.50;99.90
41762;DHT22;27441;50.860;0.258;2022-11-04T06:49:03;8.50;99.90
41762;DHT22;27441;50.860;0.258;2022-11-04T06:51:29;8.50;99.90
41762;DHT22;27441;50.860;0.258;2022-11-04T06:53:55;8.50;99.90
41762;DHT22;27441;50.860;0.258;2022-11-04T06:56:21;8.40;99.90
41762;DHT22;27441;50.860;0.258;2022-11-04T06:58:48;8.40;99.90
41762;DHT22;27441;50.860;0.258;2022-11-04T07:01:14;8.40;99.90
41762;DHT22;27441;50.860;0.258;2022-11-04T07:03:40;8.40;99.90
41762;DHT22;27441;50.860;0.258;2022-11-04T07:06:07;8.30;99.90
41762;DHT22;27441;50.860;0.258;2022-11-04T07:08:33;8.30;99.90
41762;DHT22;27441;50.860;0.258;2022-11-04T07:10:59;8.30;99.90
41762;DHT22;27441;50.860;0.258;2022-11-04T07:13:25;8.30;99.90
41762;DHT22;27441;50.860;0.258;2022-11-04T07:15:51;8.20;99.90
41762;DHT22;27441;50.860;0.258;2022-11-04T07:18:16;8.20;99.90
41762;DHT22;27441;50.860;0.258;2022-11-04T07:20:42;8.20;99.90
41762;DHT22;27441;50.860;0.258;2022-11-04T07:23:07;8.10;99.90
41762;DHT22;27441;50.860;0.258;2022-11-04T07:25:33;8.10;99.90
41762;DHT22;27441;50.860;0.258;2022-11-04T07:27:59;8.10;99.90
41762;DHT22;27441;50.860;0.258;2022-11-04T07:30:26;8.10;99.90
41762;DHT22;27441;50.860;0.258;2022-11-04T07:32:51;8.10;99.90
41762;DHT22;27441;50.860;0.258;2022-11-04T07:35:17;8.10;99.90
41762;DHT22;27441;50.860;0.258;2022-11-04T07:37:43;8.00;99.90
41762;DHT22;27441;50.860;0.258;2022-11-04T07:40:09;8.10;99.90
41762;DHT22;27441;50.860;0.258;2022-11-04T07:42:35;8.00;99.90
41762;DHT22;27441;50.860;0.258;2022-11-04T07:45:01;8.00;99.90
41762;DHT22;27441;50.860;0.258;2022-11-04T07:47:30;8.00;99.90
41762;DHT22;27441;50.860;0.258;2022-11-04T07:49:56;8.00;99.90
41762;DHT22;27441;50.860;0.258;2022-11-04T07:52:22;8.00;99.90
41762;DHT22;27441;50.860;0.258;2022-11-04T07:54:48;8.00;99.90
41762;DHT22;27441;50.860;0.258;2022-11-04T07:57:14;8.00;99.90
41762;DHT22;27441;50.860;0.258;2022-11-04T07:59:40;7.90;99.90
41762;DHT22;27441;50.860;0.258;2022-11-04T08:02:05;8.00;99.90
41762;DHT22;27441;50.860;0.258;2022-11-04T08:04:31;8.00;99.90
41762;DHT22;27441;50.860;0.258;2022-11-04T08:06:57;8.00;99.90
41762;DHT22;27441;50.860;0.258;2022-11-04T08:09:23;8.00;99.90
41762;DHT22;27441;50.860;0.258;2022-11-04T08:11:49;8.10;99.90
41762;DHT22;27441;50.860;0.258;2022-11-04T08:14:14;8.10;99.90
41762;DHT22;27441;50.860;0.258;2022-11-04T08:16:40;8.10;99.90
41762;DHT22;27441;50.860;0.258;2022-11-04T08:19:06;8.20;99.90
41762;DHT22;27441;50.860;0.258;2022-11-04T08:21:32;8.10;99.90
41762;DHT22;27441;50.860;0.258;2022-11-04T08:23:58;8.20;99.90
41762;DHT22;27441;50.860;0.258;2022-11-04T08:26:24;8.30;99.90
41762;DHT22;27441;50.860;0.258;2022-11-04T08:28:50;8.30;99.90
41762;DHT22;27441;50.860;0.258;2022-11-04T08:31:22;8.30;99.90
41762;DHT22;27441;50.860;0.258;2022-11-04T08:33:49;8.40;99.90
41762;DHT22;27441;50.860;0.258;2022-11-04T08:36:25;8.40;99.90
41762;DHT22;27441;50.860;0.258;2022-11-04T08:38:51;8.50;99.90
41762;DHT22;27441;50.860;0.258;2022-11-04T08:41:20;8.50;99.90
41762;DHT22;27441;50.860;0.258;2022-11-04T08:43:46;8.50;99.90
41762;DHT22;27441;50.860;0.258;2022-11-04T08:46:12;8.60;99.90
41762;DHT22;27441;50.860;0.258;2022-11-04T08:48:38;8.60;99.90
41762;DHT22;27441;50.860;0.258;2022-11-04T08:51:09;8.70;99.90
41762;DHT22;27441;50.860;0.258;2022-11-04T08:53:35;8.80;99.90
41762;DHT22;27441;50.860;0.258;2022-11-04T08:56:18;8.80;99.90
41762;DHT22;27441;50.860;0.258;2022-11-04T08:58:44;8.90;99.90
41762;DHT22;27441;50.860;0.258;2022-11-04T09:01:10;9.00;99.90
41762;DHT22;27441;50.860;0.258;2022-11-04T09:03:37;9.10;99.90
41762;DHT22;27441;50.860;0.258;2022-11-04T09:06:06;9.20;99.90
41762;DHT22;27441;50.860;0.258;2022-11-04T09:08:32;9.20;99.90
41762;DHT22;27441;50.860;0.258;2022-11-04T09:10:57;9.30;99.90
41762;DHT22;27441;50.860;0.258;2022-11-04T09:13:23;9.30;99.90
41762;DHT22;27441;50.860;0.258;2022-11-04T09:15:49;9.30;99.90
41762;DHT22;27441;50.860;0.258;2022-11-04T09:18:15;9.40;99.90
41762;DHT22;27441;50.860;0.258;2022-11-04T09:20:40;9.40;99.90
41762;DHT22;27441;50.860;0.258;2022-11-04T09:23:07;9.40;99.90
41762;DHT22;27441;50.860;0.258;2022-11-04T09:25:33;9.50;99.90
41762;DHT22;27441;50.860;0.258;2022-11-04T09:27:59;9.60;99.90
41762;DHT22;27441;50.860;0.258;2022-11-04T09:30:25;9.70;99.90
41762;DHT22;27441;50.860;0.258;2022-11-04T09:32:51;9.80;99.90
41762;DHT22;27441;50.860;0.258;2022-11-04T09:35:17;9.90;99.90
41762;DHT22;27441;50.860;0.258;2022-11-04T09:37:43;10.20;99.90
41762;DHT22;27441;50.860;0.258;2022-11-04T09:40:15;10.40;99.90
41762;DHT22;27441;50.860;0.258;2022-11-04T09:45:17;10.80;99.90
41762;DHT22;27441;50.860;0.258;2022-11-04T09:47:47;11.00;99.90
41762;DHT22;27441;50.860;0.258;2022-11-04T09:50:27;11.30;99.90
41762;DHT22;27441;50.860;0.258;2022-11-04T09:53:22;11.50;99.90
41762;DHT22;27441;50.860;0.258;2022-11-04T09:56:00;11.80;99.90
41762;DHT22;27441;50.860;0.258;2022-11-04T09:58:31;11.90;99.90
41762;DHT22;27441;50.860;0.258;2022-11-04T10:09:28;12.40;99.90
41762;DHT22;27441;50.860;0.258;2022-11-04T10:12:31;12.50;99.90
41762;DHT22;27441;50.860;0.258;2022-11-04T10:15:12;12.70;99.90
41762;DHT22;27441;50.860;0.258;2022-11-04T10:17:53;12.80;99.90
41762;DHT22;27441;50.860;0.258;2022-11-04T10:23:01;12.70;99.90
41762;DHT22;27441;50.860;0.258;2022-11-04T10:28:11;12.50;99.90
41762;DHT22;27441;50.860;0.258;2022-11-04T10:30:40;12.30;99.90
41762;DHT22;27441;50.860;0.258;2022-11-04T10:33:13;12.20;99.90
41762;DHT22;27441;50.860;0.258;2022-11-04T10:35:48;12.10;99.90
41762;DHT22;27441;50.860;0.258;2022-11-04T10:38:35;12.00;99.90
41762;DHT22;27441;50.860;0.258;2022-11-04T10:41:04;12.10;99.90
41762;DHT22;27441;50.860;0.258;2022-11-04T10:43:38;12.20;99.90
41762;DHT22;27441;50.860;0.258;2022-11-04T10:52:01;13.00;99.90
41762;DHT22;27441;50.860;0.258;2022-11-04T10:54:28;13.30;99.90
41762;DHT22;27441;50.860;0.258;2022-11-04T10:56:55;13.30;99.90
41762;DHT22;27441;50.860;0.258;2022-11-04T10:59:29;13.40;99.90
41762;DHT22;27441;50.860;0.258;2022-11-04T11:01:58;13.60;99.90
41762;DHT22;27441;50.860;0.258;2022-11-04T11:04:34;13.60;99.90
41762;DHT22;27441;50.860;0.258;2022-11-04T11:07:05;13.80;99.90
41762;DHT22;27441;50.860;0.258;2022-11-04T11:12:24;13.70;99.90
41762;DHT22;27441;50.860;0.258;2022-11-04T11:14:55;13.70;99.90
41762;DHT22;27441;50.860;0.258;2022-11-04T11:20:01;13.60;99.90
41762;DHT22;27441;50.860;0.258;2022-11-04T11:22:43;13.50;99.90
41762;DHT22;27441;50.860;0.258;2022-11-04T11:25:31;13.40;99.90
41762;DHT22;27441;50.860;0.258;2022-11-04T11:28:05;13.30;99.90
41762;DHT22;27441;50.860;0.258;2022-11-04T11:30:35;13.20;99.90
41762;DHT22;27441;50.860;0.258;2022-11-04T11:36:07;13.00;99.90
41762;DHT22;27441;50.860;0.258;2022-11-04T11:38:49;12.90;99.90
41762;DHT22;27441;50.860;0.258;2022-11-04T11:41:16;12.70;99.90
41762;DHT22;27441;50.860;0.258;2022-11-04T11:43:52;12.60;99.90
41762;DHT22;27441;50.860;0.258;2022-11-04T11:46:24;12.50;99.90
41762;DHT22;27441;50.860;0.258;2022-11-04T11:48:52;12.30;99.90
41762;DHT22;27441;50.860;0.258;2022-11-04T11:54:14;12.20;99.90
41762;DHT22;27441;50.860;0.258;2022-11-04T11:56:54;12.10;99.90
41762;DHT22;27441;50.860;0.258;2022-11-04T12:04:50;12.00;99.90
41762;DHT22;27441;50.860;0.258;2022-11-04T12:07:48;12.00;99.90
41762;DHT22;27441;50.860;0.258;2022-11-04T12:13:02;12.00;99.90
41762;DHT22;27441;50.860;0.258;2022-11-04T12:19:11;11.90;99.90
41762;DHT22;27441;50.860;0.258;2022-11-04T12:21:57;11.90;99.90
41762;DHT22;27441;50.860;0.258;2022-11-04T12:27:28;12.00;99.90
41762;DHT22;27441;50.860;0.258;2022-11-04T12:30:07;11.90;99.90
41762;DHT22;27441;50.860;0.258;2022-11-04T12:35:44;11.80;99.90
41762;DHT22;27441;50.860;0.258;2022-11-04T12:41:27;11.80;99.90
41762;DHT22;27441;50.860;0.258;2022-11-04T12:44:12;11.90;99.90
41762;DHT22;27441;50.860;0.258;2022-11-04T12:49:17;11.90;99.90
41762;DHT22;27441;50.860;0.258;2022-11-04T12:57:10;11.90;99.90
41762;DHT22;27441;50.860;0.258;2022-11-04T13:02:37;11.80;99.90
41762;DHT22;27441;50.860;0.258;2022-11-04T13:11:11;11.70;99.90
41762;DHT22;27441;50.860;0.258;2022-11-04T13:14:08;11.60;99.90
41762;DHT22;27441;50.860;0.258;2022-11-04T13:16:39;11.60;99.90
41762;DHT22;27441;50.860;0.258;2022-11-04T13:21:48;11.60;99.90
41762;DHT22;27441;50.860;0.258;2022-11-04T13:24:26;11.60;99.90
41762;DHT22;27441;50.860;0.258;2022-11-04T13:27:26;11.60;99.90
41762;DHT22;27441;50.860;0.258;2022-11-04T13:30:11;11.60;99.90
41762;DHT22;27441;50.860;0.258;2022-11-04T13:36:08;11.60;99.90
41762;DHT22;27441;50.860;0.258;2022-11-04T13:38:49;11.60;99.90
41762;DHT22;27441;50.860;0.258;2022-11-04T13:41:24;11.60;99.90
41762;DHT22;27441;50.860;0.258;2022-11-04T13:43:58;11.60;99.90
41762;DHT22;27441;50.860;0.258;2022-11-04T13:46:30;11.70;99.90
41762;DHT22;27441;50.860;0.258;2022-11-04T13:49:05;11.80;99.90
41762;DHT22;27441;50.860;0.258;2022-11-04T13:51:42;11.80;99.90
41762;DHT22;27441;50.860;0.258;2022-11-04T13:54:30;11.80;99.90
41762;DHT22;27441;50.860;0.258;2022-11-04T13:57:06;11.80;99.90
41762;DHT22;27441;50.860;0.258;2022-11-04T13:59:33;11.80;99.90
41762;DHT22;27441;50.860;0.258;2022-11-04T14:04:43;11.60;99.90
41762;DHT22;27441;50.860;0.258;2022-11-04T14:07:16;11.60;99.90
41762;DHT22;27441;50.860;0.258;2022-11-04T14:14:54;11.60;99.90
41762;DHT22;27441;50.860;0.258;2022-11-04T14:25:36;11.60;99.90
41762;DHT22;27441;50.860;0.258;2022-11-04T14:30:55;11.50;99.90
41762;DHT22;27441;50.860;0.258;2022-11-04T14:35:52;11.50;99.90
41762;DHT22;27441;50.860;0.258;2022-11-04T14:38:28;11.50;99.90
41762;DHT22;27441;50.860;0.258;2022-11-04T14:41:29;11.50;99.90
41762;DHT22;27441;50.860;0.258;2022-11-04T14:43:58;11.50;99.90
41762;DHT22;27441;50.860;0.258;2022-11-04T14:46:29;11.40;99.90
41762;DHT22;27441;50.860;0.258;2022-11-04T14:48:57;11.30;99.90
41762;DHT22;27441;50.860;0.258;2022-11-04T14:51:38;11.30;99.90
41762;DHT22;27441;50.860;0.258;2022-11-04T14:54:17;11.30;99.90
41762;DHT22;27441;50.860;0.258;2022-11-04T14:56:44;11.30;99.90
41762;DHT22;27441;50.860;0.258;2022-11-04T14:59:21;11.30;99.90
41762;DHT22;27441;50.860;0.258;2022-11-04T15:01:47;11.30;99.90
41762;DHT22;27441;50.860;0.258;2022-11-04T15:04:22;11.30;99.90
41762;DHT22;27441;50.860;0.258;2022-11-04T15:06:56;11.30;99.90
41762;DHT22;27441;50.860;0.258;2022-11-04T15:09:27;11.30;99.90
41762;DHT22;27441;50.860;0.258;2022-11-04T15:14:49;11.20;99.90
41762;DHT22;27441;50.860;0.258;2022-11-04T15:17:18;11.10;99.90
41762;DHT22;27441;50.860;0.258;2022-11-04T15:19:51;11.10;99.90
41762;DHT22;27441;50.860;0.258;2022-11-04T15:22:18;11.10;99.90
41762;DHT22;27441;50.860;0.258;2022-11-04T15:24:44;11.10;99.90
41762;DHT22;27441;50.860;0.258;2022-11-04T15:27:22;11.10;99.90
41762;DHT22;27441;50.860;0.258;2022-11-04T15:29:58;11.10;99.90
41762;DHT22;27441;50.860;0.258;2022-11-04T15:32:25;11.00;99.90
41762;DHT22;27441;50.860;0.258;2022-11-04T15:34:52;11.00;99.90
41762;DHT22;27441;50.860;0.258;2022-11-04T15:37:18;10.90;99.90
41762;DHT22;27441;50.860;0.258;2022-11-04T15:39:49;10.90;99.90
41762;DHT22;27441;50.860;0.258;2022-11-04T15:42:28;10.90;99.90
41762;DHT22;27441;50.860;0.258;2022-11-04T15:45:37;10.80;99.90
41762;DHT22;27441;50.860;0.258;2022-11-04T15:48:26;10.70;99.90
41762;DHT22;27441;50.860;0.258;2022-11-04T15:53:22;10.60;99.90
41762;DHT22;27441;50.860;0.258;2022-11-04T15:55:48;10.50;99.90
41762;DHT22;27441;50.860;0.258;2022-11-04T15:58:14;10.40;99.90
41762;DHT22;27441;50.860;0.258;2022-11-04T16:00:40;10.30;99.90
41762;DHT22;27441;50.860;0.258;2022-11-04T16:03:17;10.20;99.90
41762;DHT22;27441;50.860;0.258;2022-11-04T16:06:07;10.10;99.90
41762;DHT22;27441;50.860;0.258;2022-11-04T16:08:34;10.00;99.90
41762;DHT22;27441;50.860;0.258;2022-11-04T16:11:18;9.90;99.90
41762;DHT22;27441;50.860;0.258;2022-11-04T16:13:45;9.80;99.90
41762;DHT22;27441;50.860;0.258;2022-11-04T16:16:22;9.70;99.90
41762;DHT22;27441;50.860;0.258;2022-11-04T16:18:52;9.70;99.90
41762;DHT22;27441;50.860;0.258;2022-11-04T16:21:36;9.60;99.90
41762;DHT22;27441;50.860;0.258;2022-11-04T16:24:23;9.60;99.90
41762;DHT22;27441;50.860;0.258;2022-11-04T16:26:50;9.60;99.90
41762;DHT22;27441;50.860;0.258;2022-11-04T16:29:28;9.60;99.90
41762;DHT22;27441;50.860;0.258;2022-11-04T16:32:14;9.50;99.90
41762;DHT22;27441;50.860;0.258;2022-11-04T16:34:41;9.40;99.90
41762;DHT22;27441;50.860;0.258;2022-11-04T16:37:07;9.40;99.90
41762;DHT22;27441;50.860;0.258;2022-11-04T16:39:33;9.30;99.90
41762;DHT22;27441;50.860;0.258;2022-11-04T16:41:59;9.30;99.90
41762;DHT22;27441;50.860;0.258;2022-11-04T16:44:25;9.20;99.90
41762;DHT22;27441;50.860;0.258;2022-11-04T16:46:51;9.10;99.90
41762;DHT22;27441;50.860;0.258;2022-11-04T16:49:19;9.10;99.90
41762;DHT22;27441;50.860;0.258;2022-11-04T16:51:48;9.10;99.90
41762;DHT22;27441;50.860;0.258;2022-11-04T16:54:15;9.00;99.90
41762;DHT22;27441;50.860;0.258;2022-11-04T16:56:40;9.00;99.90
41762;DHT22;27441;50.860;0.258;2022-11-04T16:59:08;9.00;99.90
41762;DHT22;27441;50.860;0.258;2022-11-04T17:01:36;9.00;99.90
41762;DHT22;27441;50.860;0.258;2022-11-04T17:04:07;9.00;99.90
41762;DHT22;27441;50.860;0.258;2022-11-04T17:06:34;8.90;99.90
41762;DHT22;27441;50.860;0.258;2022-11-04T17:08:59;8.80;99.90
41762;DHT22;27441;50.860;0.258;2022-11-04T17:11:26;8.80;99.90
41762;DHT22;27441;50.860;0.258;2022-11-04T17:13:54;8.70;99.90
41762;DHT22;27441;50.860;0.258;2022-11-04T17:16:20;8.60;99.90
41762;DHT22;27441;50.860;0.258;2022-11-04T17:18:46;8.60;99.90
41762;DHT22;27441;50.860;0.258;2022-11-04T17:21:14;8.50;99.90
41762;DHT22;27441;50.860;0.258;2022-11-04T17:23:42;8.40;99.90
41762;DHT22;27441;50.860;0.258;2022-11-04T17:26:10;8.40;99.90
41762;DHT22;27441;50.860;0.258;2022-11-04T17:28:36;8.30;99.90
41762;DHT22;27441;50.860;0.258;2022-11-04T17:31:02;8.30;99.90
41762;DHT22;27441;50.860;0.258;2022-11-04T17:33:27;8.30;99.90
41762;DHT22;27441;50.860;0.258;2022-11-04T17:35:53;8.30;99.90
41762;DHT22;27441;50.860;0.258;2022-11-04T17:38:19;8.30;99.90
41762;DHT22;27441;50.860;0.258;2022-11-04T17:40:45;8.20;99.90
41762;DHT22;27441;50.860;0.258;2022-11-04T17:43:30;8.20;99.90
41762;DHT22;27441;50.860;0.258;2022-11-04T17:46:15;8.10;99.90
41762;DHT22;27441;50.860;0.258;2022-11-04T17:49:04;8.00;99.90
41762;DHT22;27441;50.860;0.258;2022-11-04T17:51:30;8.10;99.90
41762;DHT22;27441;50.860;0.258;2022-11-04T17:53:56;8.00;99.90
41762;DHT22;27441;50.860;0.258;2022-11-04T17:56:24;8.00;99.90
41762;DHT22;27441;50.860;0.258;2022-11-04T17:58:50;7.90;99.90
41762;DHT22;27441;50.860;0.258;2022-11-04T18:01:18;7.90;99.90
41762;DHT22;27441;50.860;0.258;2022-11-04T18:03:46;7.90;99.90
41762;DHT22;27441;50.860;0.258;2022-11-04T18:06:12;7.80;99.90
41762;DHT22;27441;50.860;0.258;2022-11-04T18:08:38;7.80;99.90
41762;DHT22;27441;50.860;0.258;2022-11-04T18:11:07;7.80;99.90
41762;DHT22;27441;50.860;0.258;2022-11-04T18:13:34;7.70;99.90